sensor_id;sensor_type;location;lat;lon;timestamp;temperature;humidity
34303;DHT22;20785;50.020;19.916;2022-10-15T00:05:24;15.34;68.23
34303;DHT22;20785;50.020;19.916;2022-10-15T00:11:27;15.34;68.25
34303;DHT22;20785;50.020;19.916;2022-10-15T00:17:33;15.41;68.25
34303;DHT22;20785;50.020;19.916;2022-10-15T00:23:36;15.41;68.07
34303;DHT22;20785;50.020;19.916;2022-10-15T00:29:38;15.45;68.01
34303;DHT22;20785;50.020;19.916;2022-10-15T00:35:41;15.45;68.15
34303;DHT22;20785;50.020;19.916;2022-10-15T00:41:44;15.44;68.40
34303;DHT22;20785;50.020;19.916;2022-10-15T00:47:47;15.45;68.44
34303;DHT22;20785;50.020;19.916;2022-10-15T00:53:51;15.46;68.40
34303;DHT22;20785;50.020;19.916;2022-10-15T00:59:59;15.51;68.63
34303;DHT22;20785;50.020;19.916;2022-10-15T01:06:02;15.52;68.57
34303;DHT22;20785;50.020;19.916;2022-10-15T01:12:06;15.51;68.46
34303;DHT22;20785;50.020;19.916;2022-10-15T01:18:13;15.39;68.38
34303;DHT22;20785;50.020;19.916;2022-10-15T01:31:00;15.22;68.72
34303;DHT22;20785;50.020;19.916;2022-10-15T01:43:46;15.10;69.05
34303;DHT22;20785;50.020;19.916;2022-10-15T01:49:56;15.00;69.11
34303;DHT22;20785;50.020;19.916;2022-10-15T01:56:05;14.96;69.05
34303;DHT22;20785;50.020;19.916;2022-10-15T02:02:06;14.82;68.95
34303;DHT22;20785;50.020;19.916;2022-10-15T02:08:33;14.76;69.00
34303;DHT22;20785;50.020;19.916;2022-10-15T02:21:15;14.62;68.86
34303;DHT22;20785;50.020;19.916;2022-10-15T02:27:17;14.57;68.99
34303;DHT22;20785;50.020;19.916;2022-10-15T02:33:21;14.58;69.06
34303;DHT22;20785;50.020;19.916;2022-10-15T02:39:23;14.54;69.08
34303;DHT22;20785;50.020;19.916;2022-10-15T02:45:25;14.65;69.41
34303;DHT22;20785;50.020;19.916;2022-10-15T02:51:32;14.62;69.05
34303;DHT22;20785;50.020;19.916;2022-10-15T02:57:34;14.64;69.02
34303;DHT22;20785;50.020;19.916;2022-10-15T03:03:35;14.72;68.93
34303;DHT22;20785;50.020;19.916;2022-10-15T03:09:37;14.76;68.89
34303;DHT22;20785;50.020;19.916;2022-10-15T03:15:39;14.76;68.71
34303;DHT22;20785;50.020;19.916;2022-10-15T03:21:41;14.66;68.73
34303;DHT22;20785;50.020;19.916;2022-10-15T03:27:44;14.64;69.04
34303;DHT22;20785;50.020;19.916;2022-10-15T03:33:47;14.64;69.06
34303;DHT22;20785;50.020;19.916;2022-10-15T03:39:49;14.62;69.20
34303;DHT22;20785;50.020;19.916;2022-10-15T03:45:52;14.68;69.26
34303;DHT22;20785;50.020;19.916;2022-10-15T03:51:55;14.62;68.94
34303;DHT22;20785;50.020;19.916;2022-10-15T03:57:58;14.55;68.72
34303;DHT22;20785;50.020;19.916;2022-10-15T04:04:00;14.47;68.58
34303;DHT22;20785;50.020;19.916;2022-10-15T04:10:02;14.38;68.38
34303;DHT22;20785;50.020;19.916;2022-10-15T04:16:06;14.25;68.20
34303;DHT22;20785;50.020;19.916;2022-10-15T04:22:07;14.13;68.44
34303;DHT22;20785;50.020;19.916;2022-10-15T04:28:16;14.06;68.49
34303;DHT22;20785;50.020;19.916;2022-10-15T04:34:19;14.02;68.35
34303;DHT22;20785;50.020;19.916;2022-10-15T04:40:22;13.93;68.20
34303;DHT22;20785;50.020;19.916;2022-10-15T04:46:24;13.88;68.07
34303;DHT22;20785;50.020;19.916;2022-10-15T04:52:26;13.86;68.22
34303;DHT22;20785;50.020;19.916;2022-10-15T04:58:34;13.88;68.39
34303;DHT22;20785;50.020;19.916;2022-10-15T05:04:35;13.85;68.60
34303;DHT22;20785;50.020;19.916;2022-10-15T05:10:37;13.82;68.26
34303;DHT22;20785;50.020;19.916;2022-10-15T05:16:40;13.88;68.52
34303;DHT22;20785;50.020;19.916;2022-10-15T05:22:41;13.99;68.54
34303;DHT22;20785;50.020;19.916;2022-10-15T05:28:42;14.06;68.24
34303;DHT22;20785;50.020;19.916;2022-10-15T05:34:46;14.19;68.28
34303;DHT22;20785;50.020;19.916;2022-10-15T05:40:52;14.32;68.40
34303;DHT22;20785;50.020;19.916;2022-10-15T05:46:55;14.42;68.48
34303;DHT22;20785;50.020;19.916;2022-10-15T05:53:00;14.41;68.70
34303;DHT22;20785;50.020;19.916;2022-10-15T05:59:06;14.45;69.15
34303;DHT22;20785;50.020;19.916;2022-10-15T06:05:08;14.51;69.46
34303;DHT22;20785;50.020;19.916;2022-10-15T06:11:09;14.61;69.80
34303;DHT22;20785;50.020;19.916;2022-10-15T06:17:11;14.86;70.04
34303;DHT22;20785;50.020;19.916;2022-10-15T06:23:14;15.14;69.93
34303;DHT22;20785;50.020;19.916;2022-10-15T06:29:15;15.41;69.67
34303;DHT22;20785;50.020;19.916;2022-10-15T06:35:18;15.66;69.29
34303;DHT22;20785;50.020;19.916;2022-10-15T06:41:20;15.93;68.91
34303;DHT22;20785;50.020;19.916;2022-10-15T06:47:24;16.24;68.23
34303;DHT22;20785;50.020;19.916;2022-10-15T06:53:27;16.46;66.75
34303;DHT22;20785;50.020;19.916;2022-10-15T06:59:29;16.74;65.26
34303;DHT22;20785;50.020;19.916;2022-10-15T07:05:33;16.76;66.03
34303;DHT22;20785;50.020;19.916;2022-10-15T07:11:36;16.86;65.52
34303;DHT22;20785;50.020;19.916;2022-10-15T07:17:38;16.93;65.12
34303;DHT22;20785;50.020;19.916;2022-10-15T07:23:39;16.98;65.08
34303;DHT22;20785;50.020;19.916;2022-10-15T07:29:41;17.21;64.92
34303;DHT22;20785;50.020;19.916;2022-10-15T07:35:42;17.43;64.45
34303;DHT22;20785;50.020;19.916;2022-10-15T07:41:44;17.69;64.25
34303;DHT22;20785;50.020;19.916;2022-10-15T07:47:46;17.91;62.93
34303;DHT22;20785;50.020;19.916;2022-10-15T07:53:52;18.05;62.84
34303;DHT22;20785;50.020;19.916;2022-10-15T07:59:53;18.18;63.14
34303;DHT22;20785;50.020;19.916;2022-10-15T08:05:55;18.35;62.19
34303;DHT22;20785;50.020;19.916;2022-10-15T08:12:01;18.07;61.75
34303;DHT22;20785;50.020;19.916;2022-10-15T08:18:09;17.57;62.63
34303;DHT22;20785;50.020;19.916;2022-10-15T08:24:11;18.15;62.79
34303;DHT22;20785;50.020;19.916;2022-10-15T08:30:14;18.70;62.69
34303;DHT22;20785;50.020;19.916;2022-10-15T08:36:15;19.21;61.70
34303;DHT22;20785;50.020;19.916;2022-10-15T08:42:40;19.52;60.72
34303;DHT22;20785;50.020;19.916;2022-10-15T08:48:49;19.02;61.04
34303;DHT22;20785;50.020;19.916;2022-10-15T08:54:52;18.70;60.54
34303;DHT22;20785;50.020;19.916;2022-10-15T09:01:05;18.53;61.19
34303;DHT22;20785;50.020;19.916;2022-10-15T09:13:31;18.33;61.79
34303;DHT22;20785;50.020;19.916;2022-10-15T09:19:38;18.29;61.99
34303;DHT22;20785;50.020;19.916;2022-10-15T09:25:44;18.30;61.85
34303;DHT22;20785;50.020;19.916;2022-10-15T09:38:48;18.36;60.88
34303;DHT22;20785;50.020;19.916;2022-10-15T09:44:49;18.45;61.79
34303;DHT22;20785;50.020;19.916;2022-10-15T09:51:13;18.62;60.88
34303;DHT22;20785;50.020;19.916;2022-10-15T09:57:08;18.84;59.20
34303;DHT22;20785;50.020;19.916;2022-10-15T10:03:23;18.99;57.86
34303;DHT22;20785;50.020;19.916;2022-10-15T10:09:46;19.12;55.46
34303;DHT22;20785;50.020;19.916;2022-10-15T10:15:42;19.19;55.77
34303;DHT22;20785;50.020;19.916;2022-10-15T10:21:44;19.30;56.05
34303;DHT22;20785;50.020;19.916;2022-10-15T10:27:46;19.36;56.21
34303;DHT22;20785;50.020;19.916;2022-10-15T10:33:49;19.36;56.08
34303;DHT22;20785;50.020;19.916;2022-10-15T10:39:58;19.35;55.55
34303;DHT22;20785;50.020;19.916;2022-10-15T10:52:25;19.49;56.08
34303;DHT22;20785;50.020;19.916;2022-10-15T10:58:52;19.58;55.26
34303;DHT22;20785;50.020;19.916;2022-10-15T11:04:50;19.75;55.25
34303;DHT22;20785;50.020;19.916;2022-10-15T11:24:24;19.95;55.28
34303;DHT22;20785;50.020;19.916;2022-10-15T11:43:50;20.17;55.40
34303;DHT22;20785;50.020;19.916;2022-10-15T12:02:21;20.02;55.03
34303;DHT22;20785;50.020;19.916;2022-10-15T12:08:23;19.98;54.94
34303;DHT22;20785;50.020;19.916;2022-10-15T12:14:40;19.89;55.16
34303;DHT22;20785;50.020;19.916;2022-10-15T12:20:42;19.86;54.44
34303;DHT22;20785;50.020;19.916;2022-10-15T12:26:48;19.91;55.09
34303;DHT22;20785;50.020;19.916;2022-10-15T12:32:50;20.01;55.29
34303;DHT22;20785;50.020;19.916;2022-10-15T12:39:23;20.13;55.27
34303;DHT22;20785;50.020;19.916;2022-10-15T12:45:40;20.29;55.01
34303;DHT22;20785;50.020;19.916;2022-10-15T12:51:42;20.43;54.62
34303;DHT22;20785;50.020;19.916;2022-10-15T13:03:53;20.60;54.07
34303;DHT22;20785;50.020;19.916;2022-10-15T13:09:56;20.67;54.11
34303;DHT22;20785;50.020;19.916;2022-10-15T13:16:07;20.72;53.72
34303;DHT22;20785;50.020;19.916;2022-10-15T13:22:23;20.71;53.43
34303;DHT22;20785;50.020;19.916;2022-10-15T13:28:34;20.67;52.99
34303;DHT22;20785;50.020;19.916;2022-10-15T13:34:44;20.51;52.99
34303;DHT22;20785;50.020;19.916;2022-10-15T13:40:50;20.37;52.76
34303;DHT22;20785;50.020;19.916;2022-10-15T13:46:53;20.32;52.89
34303;DHT22;20785;50.020;19.916;2022-10-15T13:59:30;20.11;52.70
34303;DHT22;20785;50.020;19.916;2022-10-15T14:05:32;19.97;52.56
34303;DHT22;20785;50.020;19.916;2022-10-15T14:11:34;19.85;52.53
34303;DHT22;20785;50.020;19.916;2022-10-15T14:17:35;19.68;52.53
34303;DHT22;20785;50.020;19.916;2022-10-15T14:23:36;19.56;52.56
34303;DHT22;20785;50.020;19.916;2022-10-15T14:29:45;19.40;52.27
34303;DHT22;20785;50.020;19.916;2022-10-15T14:36:01;19.26;52.09
34303;DHT22;20785;50.020;19.916;2022-10-15T14:41:57;19.12;52.10
34303;DHT22;20785;50.020;19.916;2022-10-15T14:48:10;18.99;52.45
34303;DHT22;20785;50.020;19.916;2022-10-15T14:54:20;18.91;52.53
34303;DHT22;20785;50.020;19.916;2022-10-15T15:00:31;18.80;52.61
34303;DHT22;20785;50.020;19.916;2022-10-15T15:06:33;18.71;52.72
34303;DHT22;20785;50.020;19.916;2022-10-15T15:12:37;18.57;53.14
34303;DHT22;20785;50.020;19.916;2022-10-15T15:18:39;18.46;53.54
34303;DHT22;20785;50.020;19.916;2022-10-15T15:24:42;18.35;53.53
34303;DHT22;20785;50.020;19.916;2022-10-15T15:30:49;18.21;53.90
34303;DHT22;20785;50.020;19.916;2022-10-15T15:36:49;18.09;54.54
34303;DHT22;20785;50.020;19.916;2022-10-15T15:42:50;18.01;54.73
34303;DHT22;20785;50.020;19.916;2022-10-15T15:48:52;17.88;55.12
34303;DHT22;20785;50.020;19.916;2022-10-15T15:55:03;17.78;55.25
34303;DHT22;20785;50.020;19.916;2022-10-15T16:01:05;17.70;55.49
34303;DHT22;20785;50.020;19.916;2022-10-15T16:07:07;17.57;55.59
34303;DHT22;20785;50.020;19.916;2022-10-15T16:13:13;17.48;55.51
34303;DHT22;20785;50.020;19.916;2022-10-15T16:19:23;17.39;55.43
34303;DHT22;20785;50.020;19.916;2022-10-15T16:25:26;17.32;55.34
34303;DHT22;20785;50.020;19.916;2022-10-15T16:31:29;17.26;55.42
34303;DHT22;20785;50.020;19.916;2022-10-15T16:37:32;17.26;55.37
34303;DHT22;20785;50.020;19.916;2022-10-15T16:43:35;17.17;55.18
34303;DHT22;20785;50.020;19.916;2022-10-15T16:49:52;17.13;55.19
34303;DHT22;20785;50.020;19.916;2022-10-15T17:02:18;17.07;55.22
34303;DHT22;20785;50.020;19.916;2022-10-15T17:08:17;17.03;55.34
34303;DHT22;20785;50.020;19.916;2022-10-15T17:14:25;17.03;55.39
34303;DHT22;20785;50.020;19.916;2022-10-15T17:20:26;16.97;55.42
34303;DHT22;20785;50.020;19.916;2022-10-15T17:26:35;16.94;55.47
34303;DHT22;20785;50.020;19.916;2022-10-15T17:32:40;16.96;55.73
34303;DHT22;20785;50.020;19.916;2022-10-15T17:38:42;16.88;56.19
34303;DHT22;20785;50.020;19.916;2022-10-15T17:44:44;16.84;56.58
34303;DHT22;20785;50.020;19.916;2022-10-15T17:50:45;16.80;56.62
34303;DHT22;20785;50.020;19.916;2022-10-15T17:56:55;16.74;56.71
34303;DHT22;20785;50.020;19.916;2022-10-15T18:02:58;16.70;57.00
34303;DHT22;20785;50.020;19.916;2022-10-15T18:09:06;16.66;57.21
34303;DHT22;20785;50.020;19.916;2022-10-15T18:15:08;16.56;57.60
34303;DHT22;20785;50.020;19.916;2022-10-15T18:21:26;16.48;58.03
34303;DHT22;20785;50.020;19.916;2022-10-15T18:27:17;16.32;58.40
34303;DHT22;20785;50.020;19.916;2022-10-15T18:33:19;16.21;58.87
34303;DHT22;20785;50.020;19.916;2022-10-15T18:39:20;16.06;59.22
34303;DHT22;20785;50.020;19.916;2022-10-15T18:45:22;15.94;59.71
34303;DHT22;20785;50.020;19.916;2022-10-15T18:51:23;15.82;60.29
34303;DHT22;20785;50.020;19.916;2022-10-15T18:57:26;15.72;60.63
34303;DHT22;20785;50.020;19.916;2022-10-15T19:03:28;15.63;60.85
34303;DHT22;20785;50.020;19.916;2022-10-15T19:09:31;15.56;61.31
34303;DHT22;20785;50.020;19.916;2022-10-15T19:15:35;15.54;61.53
34303;DHT22;20785;50.020;19.916;2022-10-15T19:21:36;15.49;61.61
34303;DHT22;20785;50.020;19.916;2022-10-15T19:27:45;15.42;61.55
34303;DHT22;20785;50.020;19.916;2022-10-15T19:33:56;15.38;61.79
34303;DHT22;20785;50.020;19.916;2022-10-15T19:40:07;15.34;62.28
34303;DHT22;20785;50.020;19.916;2022-10-15T19:46:09;16.20;62.51
34303;DHT22;20785;50.020;19.916;2022-10-15T19:52:17;17.04;67.70
34303;DHT22;20785;50.020;19.916;2022-10-15T19:58:25;18.52;59.71
34303;DHT22;20785;50.020;19.916;2022-10-15T20:04:31;17.83;57.28
34303;DHT22;20785;50.020;19.916;2022-10-15T20:10:37;16.98;58.55
34303;DHT22;20785;50.020;19.916;2022-10-15T20:16:44;16.52;60.15
34303;DHT22;20785;50.020;19.916;2022-10-15T20:22:47;16.11;61.72
34303;DHT22;20785;50.020;19.916;2022-10-15T20:28:53;17.87;63.47
34303;DHT22;20785;50.020;19.916;2022-10-15T20:41:29;20.01;58.70
34303;DHT22;20785;50.020;19.916;2022-10-15T20:47:45;18.70;56.65
34303;DHT22;20785;50.020;19.916;2022-10-15T20:53:46;17.52;58.24
34303;DHT22;20785;50.020;19.916;2022-10-15T20:59:52;16.80;60.03
34303;DHT22;20785;50.020;19.916;2022-10-15T21:06:12;16.25;61.48
34303;DHT22;20785;50.020;19.916;2022-10-15T21:19:56;19.19;61.34
34303;DHT22;20785;50.020;19.916;2022-10-15T21:33:17;18.33;57.21
34303;DHT22;20785;50.020;19.916;2022-10-15T21:39:45;17.21;59.20
34303;DHT22;20785;50.020;19.916;2022-10-15T21:46:13;16.48;61.07
34303;DHT22;20785;50.020;19.916;2022-10-15T21:52:25;15.98;62.39
34303;DHT22;20785;50.020;19.916;2022-10-15T21:58:36;17.86;64.64
34303;DHT22;20785;50.020;19.916;2022-10-15T22:05:10;19.05;62.04
34303;DHT22;20785;50.020;19.916;2022-10-15T22:11:18;19.65;59.55
34303;DHT22;20785;50.020;19.916;2022-10-15T22:17:20;18.50;57.85
34303;DHT22;20785;50.020;19.916;2022-10-15T22:23:22;17.45;59.64
34303;DHT22;20785;50.020;19.916;2022-10-15T22:29:44;16.76;61.31
34303;DHT22;20785;50.020;19.916;2022-10-15T22:35:52;16.20;62.72
34303;DHT22;20785;50.020;19.916;2022-10-15T22:41:56;17.87;65.68
34303;DHT22;20785;50.020;19.916;2022-10-15T22:55:26;20.37;59.09
34303;DHT22;20785;50.020;19.916;2022-10-15T23:01:30;19.03;56.61
34303;DHT22;20785;50.020;19.916;2022-10-15T23:07:36;17.80;58.48
34303;DHT22;20785;50.020;19.916;2022-10-15T23:13:41;17.00;60.45
34303;DHT22;20785;50.020;19.916;2022-10-15T23:19:42;16.44;62.12
34303;DHT22;20785;50.020;19.916;2022-10-15T23:32:54;19.05;61.72
34303;DHT22;20785;50.020;19.916;2022-10-15T23:38:57;19.46;63.45
34303;DHT22;20785;50.020;19.916;2022-10-15T23:45:00;19.71;59.16
34303;DHT22;20785;50.020;19.916;2022-10-15T23:51:22;18.56;57.87
34303;DHT22;20785;50.020;19.916;2022-10-15T23:57:26;17.41;59.95
